Weather at Campo di Volo Valbelice

Public forecast

Using degrees Celsius for public forecast. Weather courtesy of forecast.io.

Closest aviation weather report (METAR) to Campo di Volo Valbelice

Closest report is Vincenzo Florio Airport Trapani-Birgi, 19.7 nm (36.5 km) NW. Retrieved 2021/03/04 16:55 UTC (56 minutes ago):

LICT 041655Z 19009KT 9999 SCT022 14/11 Q1022

Closest aviation forecast (TAF) to Campo di Volo Valbelice

Forecast is more than 12 hours old.

Closest forecast is Vincenzo Florio Airport Trapani-Birgi, 19.7 nm (36.5 km) NW. Retrieved 2021/02/10 12:24 UTC (22 days ago):

TAF TAF LICT 101100Z 1012/1024 18015KT CAVOK BECMG 1015/1017 7000 RA BKN018 BECMG 1018/1020 26020G32KT TEMPO 1020/1024 27025G40KT TSRA SCT015CB BKN018